Terminal Aerodrome Forecast
Issued by NWS Lake Charles, LA

Home | Current Version | Previous Version | Text Only | Print | Product List | Glossary On
Versions: 1 2 3 4 5 6 7 8 9 10 11 12 13 14
000
FTUS44 KLCH 121100
TAFLFT
TAF
KLFT 121120Z 1212/1312 VRB05KT P6SM SKC
     FM121800 VRB05KT P6SM VCTS SCT035CB
     FM122300 24003KT P6SM SKC=

USA.gov is the U.S. government's official web portal to all federal, state and local government web resources and services.